createdAt,value
2023-01-17T00:02:33.570Z,8.80
2023-01-17T00:07:53.963Z,8.10
2023-01-17T00:12:58.477Z,7.50
2023-01-17T00:18:00.195Z,9.50
2023-01-17T00:23:23.978Z,7.70
2023-01-17T00:28:26.607Z,8.20
2023-01-17T00:33:28.841Z,5.20
2023-01-17T00:38:32.524Z,12.00
2023-01-17T00:43:53.040Z,8.50
2023-01-17T00:49:13.084Z,9.40
2023-01-17T00:54:34.000Z,9.60
2023-01-17T00:59:55.129Z,8.10
2023-01-17T01:05:15.058Z,7.70
2023-01-17T01:10:35.721Z,8.30
2023-01-17T01:15:55.591Z,9.80
2023-01-17T01:21:21.089Z,8.10
2023-01-17T01:26:41.683Z,7.00
2023-01-17T01:32:01.697Z,10.80
2023-01-17T01:37:03.363Z,8.20
2023-01-17T01:42:13.391Z,8.70
2023-01-17T01:52:25.102Z,10.70
2023-01-17T01:57:32.123Z,8.20
2023-01-17T02:02:34.963Z,7.30
2023-01-17T02:08:02.474Z,10.60
2023-01-17T02:13:04.992Z,9.80
2023-01-17T02:18:18.031Z,8.50
2023-01-17T02:23:58.053Z,9.90
2023-01-17T02:29:24.615Z,8.30
2023-01-17T02:34:41.321Z,7.90
2023-01-17T02:40:07.230Z,10.90
2023-01-17T02:45:14.930Z,8.50
2023-01-17T02:50:23.549Z,9.50
2023-01-17T02:55:43.496Z,8.60
2023-01-17T03:00:51.885Z,9.50
2023-01-17T03:06:11.850Z,7.40
2023-01-17T03:11:14.262Z,9.60
2023-01-17T03:16:21.192Z,7.50
2023-01-17T03:21:24.276Z,9.40
2023-01-17T03:26:25.809Z,7.90
2023-01-17T03:31:27.337Z,9.60
2023-01-17T03:36:28.877Z,7.80
2023-01-17T03:41:30.389Z,7.60
2023-01-17T03:46:31.993Z,7.70
2023-01-17T03:51:33.511Z,9.40
2023-01-17T03:56:35.060Z,8.90
2023-01-17T04:01:36.635Z,9.30
2023-01-17T04:06:38.601Z,10.40
2023-01-17T04:11:40.088Z,15.50
2023-01-17T04:16:41.656Z,7.60
2023-01-17T04:21:43.160Z,9.30
2023-01-17T04:26:44.680Z,7.10
2023-01-17T04:31:47.820Z,11.90
2023-01-17T04:36:49.503Z,10.90
2023-01-17T04:41:50.987Z,7.40
2023-01-17T04:46:52.484Z,8.80
2023-01-17T04:51:54.012Z,8.80
2023-01-17T04:56:55.548Z,8.10
2023-01-17T05:01:57.100Z,6.60
2023-01-17T05:06:59.042Z,10.10
2023-01-17T05:12:00.734Z,9.30
2023-01-17T05:17:04.796Z,8.00
2023-01-17T05:22:15.037Z,7.00
2023-01-17T05:27:16.809Z,8.10
2023-01-17T05:32:18.485Z,9.40
2023-01-17T05:37:20.963Z,8.90
2023-01-17T05:42:22.565Z,8.70
2023-01-17T05:47:24.082Z,8.30
2023-01-17T05:52:25.565Z,8.00
2023-01-17T05:57:27.148Z,6.90
2023-01-17T06:02:28.685Z,8.20
2023-01-17T06:07:31.853Z,8.40
2023-01-17T06:12:33.334Z,7.60
2023-01-17T06:17:35.670Z,9.70
2023-01-17T06:22:37.332Z,8.60
2023-01-17T06:27:38.854Z,7.30
2023-01-17T06:32:40.428Z,8.10
2023-01-17T06:37:41.953Z,9.70
2023-01-17T06:42:43.869Z,8.60
2023-01-17T06:47:45.679Z,10.20
2023-01-17T06:53:05.393Z,10.10
2023-01-17T06:58:07.036Z,11.00
2023-01-17T07:03:20.039Z,9.30
2023-01-17T07:08:21.823Z,8.70
2023-01-17T07:13:23.366Z,8.60
2023-01-17T07:18:24.888Z,8.20
2023-01-17T07:23:26.519Z,11.40
2023-01-17T07:28:29.388Z,7.50
2023-01-17T07:33:30.965Z,7.50
2023-01-17T07:38:32.483Z,6.40
2023-01-17T07:43:35.512Z,10.90
2023-01-17T07:48:37.092Z,7.10
2023-01-17T07:53:38.567Z,7.80
2023-01-17T07:58:40.114Z,4.90
2023-01-17T08:03:42.385Z,5.10
2023-01-17T08:08:44.581Z,11.40
2023-01-17T08:13:47.140Z,7.20
2023-01-17T08:18:48.808Z,8.90
2023-01-17T08:23:51.955Z,6.30
2023-01-17T08:29:00.442Z,8.50
2023-01-17T08:34:02.372Z,8.10
2023-01-17T08:39:03.924Z,7.60
2023-01-17T08:44:05.852Z,7.20
2023-01-17T08:49:09.429Z,8.90
2023-01-17T08:54:13.008Z,8.10
2023-01-17T08:59:14.719Z,6.20
2023-01-17T09:04:16.354Z,8.90
2023-01-17T09:09:18.464Z,7.90
2023-01-17T09:14:20.024Z,7.40
2023-01-17T09:19:21.528Z,8.50
2023-01-17T09:24:23.147Z,8.90
2023-01-17T09:29:24.764Z,7.70
2023-01-17T09:34:28.079Z,8.50
2023-01-17T09:39:29.884Z,9.50
2023-01-17T09:44:38.023Z,8.30
2023-01-17T09:49:44.730Z,8.70
2023-01-17T09:54:48.716Z,11.50
2023-01-17T10:00:12.666Z,10.00
2023-01-17T10:05:16.972Z,11.00
2023-01-17T10:10:44.909Z,9.60
2023-01-17T10:15:51.939Z,7.60
2023-01-17T10:20:56.372Z,7.60
2023-01-17T10:26:03.258Z,7.90
2023-01-17T10:31:26.002Z,9.00
2023-01-17T10:36:31.540Z,9.20
2023-01-17T10:41:38.283Z,6.40
2023-01-17T10:47:11.329Z,6.30
2023-01-17T10:52:13.049Z,6.90
2023-01-17T10:57:26.255Z,7.90
2023-01-17T11:02:33.251Z,10.50
2023-01-17T11:07:34.860Z,7.30
2023-01-17T11:12:45.130Z,10.30
2023-01-17T11:17:52.916Z,11.20
2023-01-17T11:23:17.412Z,9.80
2023-01-17T11:28:18.968Z,10.00
2023-01-17T11:33:49.119Z,13.90
2023-01-17T11:38:58.112Z,13.10
2023-01-17T11:44:01.028Z,11.00
2023-01-17T11:49:02.617Z,10.80
2023-01-17T11:54:09.001Z,9.70
2023-01-17T11:59:31.675Z,9.40
2023-01-17T12:04:42.791Z,7.60
2023-01-17T12:09:56.242Z,7.70
2023-01-17T12:15:19.658Z,8.90
2023-01-17T12:20:55.953Z,9.30
2023-01-17T12:26:24.220Z,16.50
2023-01-17T12:31:37.065Z,13.30
2023-01-17T12:36:52.188Z,7.30
2023-01-17T12:42:18.533Z,9.90
2023-01-17T12:47:21.568Z,9.90
2023-01-17T12:52:46.499Z,12.70
2023-01-17T12:57:55.980Z,11.00
2023-01-17T13:03:16.064Z,13.90
2023-01-17T13:08:46.578Z,12.00
2023-01-17T13:13:51.461Z,12.20
2023-01-17T13:18:53.777Z,8.80
2023-01-17T13:24:04.012Z,9.50
2023-01-17T13:29:20.474Z,16.10
2023-01-17T13:34:33.299Z,8.30
2023-01-17T13:40:05.015Z,10.70
2023-01-17T13:45:09.248Z,20.30
2023-01-17T13:50:49.987Z,8.70
2023-01-17T13:55:53.401Z,7.30
2023-01-17T14:00:55.148Z,10.50
2023-01-17T14:05:57.331Z,11.90
2023-01-17T14:11:09.831Z,8.80
2023-01-17T14:16:29.016Z,11.70
2023-01-17T14:21:32.575Z,12.20
2023-01-17T14:26:46.417Z,11.60
2023-01-17T14:31:50.812Z,12.40
2023-01-17T14:37:04.341Z,14.10
2023-01-17T14:42:05.943Z,21.20
2023-01-17T14:47:14.113Z,22.20
2023-01-17T14:52:18.520Z,25.20
2023-01-17T14:57:28.039Z,21.70
2023-01-17T15:02:29.788Z,41.90
2023-01-17T15:07:32.348Z,77.00
2023-01-17T15:12:36.708Z,52.40
2023-01-17T15:22:39.891Z,27.60
2023-01-17T15:27:41.415Z,22.20
2023-01-17T15:32:47.869Z,24.60
2023-01-17T15:37:54.528Z,44.90
2023-01-17T15:43:01.109Z,24.50
2023-01-17T15:48:41.027Z,24.20
2023-01-17T15:53:43.252Z,24.80
2023-01-17T15:58:45.284Z,24.80
2023-01-17T16:03:54.712Z,23.40
2023-01-17T16:08:56.243Z,36.40
2023-01-17T16:13:57.709Z,33.00
2023-01-17T16:19:02.226Z,35.00
2023-01-17T16:24:09.358Z,30.30
2023-01-17T16:29:11.064Z,28.70
2023-01-17T16:34:13.118Z,23.10
2023-01-17T16:39:15.374Z,20.30
2023-01-17T16:44:17.110Z,36.30
2023-01-17T16:49:19.036Z,39.00
2023-01-17T16:54:20.551Z,39.00
2023-01-17T16:59:22.364Z,29.80
2023-01-17T17:04:23.844Z,38.80
2023-01-17T17:09:25.488Z,50.50
2023-01-17T17:14:27.396Z,47.00
2023-01-17T17:19:29.033Z,41.70
2023-01-17T17:24:30.532Z,43.20
2023-01-17T17:29:32.393Z,43.10
2023-01-17T17:34:36.744Z,56.00
2023-01-17T17:44:40.349Z,31.30
2023-01-17T17:49:42.250Z,30.80
2023-01-17T17:54:43.748Z,33.00
2023-01-17T17:59:45.272Z,54.40
2023-01-17T18:04:47.142Z,59.80
2023-01-17T18:09:49.745Z,54.80
2023-01-17T18:14:51.227Z,36.50
2023-01-17T18:19:54.815Z,29.00
2023-01-17T18:24:57.236Z,43.60
2023-01-17T18:29:59.478Z,27.30
2023-01-17T18:35:00.996Z,23.70
2023-01-17T18:40:02.781Z,34.10
2023-01-17T18:45:05.328Z,40.20
2023-01-17T18:50:07.073Z,30.00
2023-01-17T18:55:08.846Z,28.30
2023-01-17T19:00:11.318Z,23.70
2023-01-17T19:05:14.859Z,38.10
2023-01-17T19:10:16.407Z,30.80
2023-01-17T19:15:17.885Z,30.00
2023-01-17T19:20:19.356Z,26.50
2023-01-17T19:25:22.957Z,66.00
2023-01-17T19:30:24.568Z,49.10
2023-01-17T19:35:26.101Z,35.90
2023-01-17T19:40:27.984Z,26.20
2023-01-17T19:45:29.481Z,27.50
2023-01-17T19:50:31.048Z,49.60
2023-01-17T19:55:32.529Z,29.40
2023-01-17T20:00:45.904Z,29.60
2023-01-17T20:05:56.672Z,23.70
2023-01-17T20:11:03.001Z,20.60
2023-01-17T20:16:06.914Z,36.50
2023-01-17T20:21:14.644Z,24.20
2023-01-17T20:26:19.354Z,24.60
2023-01-17T20:31:23.533Z,34.30
2023-01-17T20:36:29.086Z,35.50
2023-01-17T20:41:36.466Z,65.30
2023-01-17T20:46:41.292Z,54.40
2023-01-17T20:51:44.906Z,40.10
2023-01-17T20:56:51.408Z,39.40
2023-01-17T21:01:53.035Z,27.00
2023-01-17T21:06:55.396Z,48.10
2023-01-17T21:12:01.440Z,33.10
2023-01-17T21:17:03.344Z,42.80
2023-01-17T21:22:05.507Z,25.70
2023-01-17T21:27:07.057Z,38.20
2023-01-17T21:32:08.900Z,24.00
2023-01-17T21:37:10.540Z,22.10
2023-01-17T21:42:12.088Z,20.60
2023-01-17T21:47:13.587Z,29.90
2023-01-17T21:52:21.153Z,24.30
2023-01-17T21:57:41.738Z,23.60
2023-01-17T22:02:48.141Z,14.80
2023-01-17T22:08:10.887Z,15.50
2023-01-17T22:13:17.978Z,15.30
2023-01-17T22:18:19.525Z,30.00
2023-01-17T22:23:21.184Z,17.40
2023-01-17T22:28:23.228Z,20.10
2023-01-17T22:33:24.706Z,20.30
2023-01-17T22:38:26.250Z,29.40
2023-01-17T22:43:27.715Z,19.40
2023-01-17T22:48:31.891Z,20.60
2023-01-17T22:53:33.853Z,13.10
2023-01-17T22:58:35.965Z,27.50
2023-01-17T23:03:38.582Z,17.00
2023-01-17T23:08:42.865Z,14.70
2023-01-17T23:13:44.348Z,14.80
2023-01-17T23:19:04.186Z,24.70
2023-01-17T23:24:06.308Z,16.20
2023-01-17T23:29:07.811Z,13.50
2023-01-17T23:34:09.327Z,16.70
2023-01-17T23:39:10.812Z,10.50
2023-01-17T23:44:12.483Z,27.60
2023-01-17T23:49:14.022Z,15.50
2023-01-17T23:54:15.505Z,16.90
2023-01-17T23:59:17.097Z,11.30
